Time;durP1;ratioP1;P1;durP2;ratioP2;P2;SDS_P1;SDS_P2;PMS_P1;PMS_P2;Temp;Humidity;BMP_temperature;BMP_pressure;BME280_temperature;BME280_humidity;BME280_pressure;Samples;Min_cycle;Max_cycle;Signal;HPM_P1;HPM_P2
2021/06/22 00:01:23;;;;;;;9.23;7.50;;;20.60;99.90;;;;;;5061262;28;20501;-84
2021/06/22 00:03:53;;;;;;;8.27;7.37;;;20.50;99.90;;;;;;5060410;28;20442;-84
2021/06/22 00:06:26;;;;;;;8.50;7.30;;;20.50;99.90;;;;;;5077609;28;20437;-84
2021/06/22 00:08:56;;;;;;;8.13;7.33;;;20.40;99.90;;;;;;5060846;28;20444;-85
2021/06/22 00:11:27;;;;;;;9.50;8.60;;;20.40;99.90;;;;;;5061934;28;20423;-84
2021/06/22 00:13:56;;;;;;;10.63;8.10;;;20.40;99.90;;;;;;5061543;28;20833;-85
2021/06/22 00:16:24;;;;;;;8.53;7.60;;;20.40;99.90;;;;;;5059748;28;20566;-85
2021/06/22 00:18:54;;;;;;;8.20;7.30;;;20.40;99.90;;;;;;5059670;28;20941;-84
2021/06/22 00:21:23;;;;;;;11.23;9.00;;;20.50;99.90;;;;;;5059860;28;20409;-83
2021/06/22 00:23:51;;;;;;;10.67;8.90;;;20.60;99.90;;;;;;5060288;28;20825;-84
2021/06/22 00:26:19;;;;;;;7.83;6.60;;;20.70;99.90;;;;;;5077499;28;20489;-84
2021/06/22 00:28:48;;;;;;;9.10;8.17;;;20.70;99.90;;;;;;5078704;28;20398;-84
2021/06/22 00:31:18;;;;;;;8.87;7.90;;;20.80;99.90;;;;;;5060300;28;20446;-84
2021/06/22 00:33:47;;;;;;;7.27;6.60;;;20.80;99.90;;;;;;5077961;28;20794;-85
2021/06/22 00:36:16;;;;;;;11.23;7.93;;;20.80;99.90;;;;;;5060008;28;20478;-84
2021/06/22 00:38:45;;;;;;;10.10;9.20;;;20.90;99.90;;;;;;5060442;28;20851;-84
2021/06/22 00:41:13;;;;;;;10.40;8.80;;;20.90;99.90;;;;;;5060757;28;20437;-82
2021/06/22 00:43:42;;;;;;;10.17;9.07;;;20.80;99.90;;;;;;5062553;28;20448;-85
2021/06/22 00:46:10;;;;;;;11.27;8.60;;;20.80;99.90;;;;;;5069956;28;20941;-84
2021/06/22 00:48:39;;;;;;;10.33;9.37;;;20.80;99.90;;;;;;5070602;28;20493;-84
2021/06/22 00:51:08;;;;;;;9.80;8.80;;;20.70;99.90;;;;;;5070583;28;20774;-84
2021/06/22 00:53:39;;;;;;;13.20;9.50;;;20.70;99.90;;;;;;5065862;28;20461;-83
2021/06/22 00:56:08;;;;;;;9.47;8.67;;;20.70;99.90;;;;;;5063461;28;20443;-84
2021/06/22 00:58:37;;;;;;;14.47;9.43;;;20.60;99.90;;;;;;5081417;28;20760;-83
2021/06/22 01:01:05;;;;;;;9.57;8.67;;;20.70;99.90;;;;;;5063205;28;20413;-84
2021/06/22 01:03:35;;;;;;;12.80;10.57;;;20.60;99.90;;;;;;5062739;28;20662;-85
2021/06/22 01:06:10;;;;;;;10.53;9.27;;;20.60;99.90;;;;;;5083090;28;20457;-84
2021/06/22 01:08:46;;;;;;;11.27;10.00;;;20.70;99.90;;;;;;5076508;28;20433;-83
2021/06/22 01:11:14;;;;;;;10.93;8.47;;;20.80;99.90;;;;;;5076550;28;20510;-83
2021/06/22 01:13:43;;;;;;;11.37;8.87;;;20.70;99.90;;;;;;5075370;28;20405;-84
2021/06/22 01:16:23;;;;;;;13.10;9.60;;;20.70;99.90;;;;;;5064646;28;20457;-84
2021/06/22 01:19:00;;;;;;;11.20;9.97;;;20.70;99.90;;;;;;5063282;28;20393;-83
2021/06/22 01:21:38;;;;;;;13.10;9.30;;;20.60;99.90;;;;;;5082102;28;20475;-84
2021/06/22 01:24:20;;;;;;;10.33;9.43;;;20.60;99.90;;;;;;5063055;28;20430;-84
2021/06/22 01:26:54;;;;;;;8.40;7.57;;;20.60;99.90;;;;;;5063520;28;20617;-83
2021/06/22 01:29:23;;;;;;;9.57;8.53;;;20.60;99.90;;;;;;5063912;28;20500;-83
2021/06/22 01:31:53;;;;;;;10.80;9.77;;;20.80;99.90;;;;;;5064065;28;20421;-84
2021/06/22 01:34:22;;;;;;;13.20;9.10;;;20.60;99.90;;;;;;5063170;28;20529;-84
2021/06/22 01:36:54;;;;;;;13.23;10.87;;;20.60;99.90;;;;;;5063785;28;20545;-84
2021/06/22 01:39:24;;;;;;;11.87;10.63;;;20.60;99.90;;;;;;5092821;28;20442;-85
2021/06/22 01:41:53;;;;;;;9.70;8.80;;;20.40;99.90;;;;;;5081941;28;20442;-86
2021/06/22 01:44:21;;;;;;;8.90;8.07;;;20.30;99.90;;;;;;5078638;28;20445;-83
2021/06/22 01:46:49;;;;;;;11.27;9.40;;;20.30;99.90;;;;;;5061069;28;20520;-85
2021/06/22 01:49:18;;;;;;;12.80;10.30;;;20.20;99.90;;;;;;5061028;28;20409;-83
2021/06/22 01:51:46;;;;;;;10.47;9.37;;;20.10;99.90;;;;;;5078694;28;20401;-83
2021/06/22 01:54:16;;;;;;;9.40;8.50;;;20.10;99.90;;;;;;5060651;28;20409;-84
2021/06/22 01:56:49;;;;;;;10.60;9.20;;;20.10;99.90;;;;;;5061323;28;20486;-84
2021/06/22 01:59:22;;;;;;;11.47;9.70;;;20.00;99.90;;;;;;5062633;28;20434;-85
2021/06/22 02:02:10;;;;;;;11.37;10.27;;;19.90;99.90;;;;;;5079796;28;20446;-85
2021/06/22 02:04:46;;;;;;;10.63;9.03;;;19.80;99.90;;;;;;5062335;28;20411;-84
2021/06/22 02:07:16;;;;;;;11.93;10.20;;;19.80;99.90;;;;;;5080950;28;20487;-84
2021/06/22 02:09:58;;;;;;;17.50;11.17;;;19.80;99.90;;;;;;5081394;28;20963;-84
2021/06/22 02:12:45;;;;;;;16.53;11.23;;;19.70;99.90;;;;;;5080726;28;20404;-84
2021/06/22 02:15:15;;;;;;;13.10;10.80;;;19.70;99.90;;;;;;5063236;28;20432;-85
2021/06/22 02:17:43;;;;;;;13.63;10.27;;;19.60;99.90;;;;;;5064132;28;20437;-85
2021/06/22 02:20:14;;;;;;;12.27;11.07;;;19.60;99.90;;;;;;5069529;28;20442;-85
2021/06/22 02:22:45;;;;;;;11.53;10.10;;;19.60;99.90;;;;;;5079584;28;20401;-84
2021/06/22 02:25:18;;;;;;;12.80;11.50;;;19.60;99.90;;;;;;5079135;28;20452;-85
2021/06/22 02:27:47;;;;;;;17.90;11.40;;;19.60;99.90;;;;;;5079380;28;20431;-83
2021/06/22 02:30:18;;;;;;;10.83;9.67;;;19.60;99.90;;;;;;5078481;28;20412;-85
2021/06/22 02:32:48;;;;;;;12.77;11.03;;;19.60;99.90;;;;;;5096595;28;20402;-83
2021/06/22 02:35:23;;;;;;;11.37;9.57;;;19.70;99.90;;;;;;5079796;28;20435;-83
2021/06/22 02:37:58;;;;;;;12.00;10.73;;;19.60;99.90;;;;;;5071751;28;20453;-85
2021/06/22 02:40:30;;;;;;;11.03;9.97;;;19.60;99.90;;;;;;5063270;28;20486;-84
2021/06/22 02:43:01;;;;;;;11.77;10.57;;;19.60;99.90;;;;;;5063366;28;20484;-84
2021/06/22 02:45:29;;;;;;;11.90;10.70;;;19.60;99.90;;;;;;5081663;28;20417;-85
2021/06/22 02:47:58;;;;;;;10.63;9.63;;;19.50;99.90;;;;;;5082833;28;20473;-85
2021/06/22 02:50:33;;;;;;;11.50;9.90;;;19.50;99.90;;;;;;5093294;28;20421;-85
2021/06/22 02:53:03;;;;;;;16.40;10.20;;;19.50;99.90;;;;;;5079779;28;20420;-84
2021/06/22 02:55:34;;;;;;;10.93;9.53;;;19.50;99.90;;;;;;5096465;28;20447;-85
2021/06/22 02:58:08;;;;;;;11.80;10.60;;;19.40;99.90;;;;;;5096367;28;20404;-84
2021/06/22 03:00:38;;;;;;;13.10;10.80;;;19.30;99.90;;;;;;5097473;28;20421;-86
2021/06/22 03:03:10;;;;;;;13.13;11.73;;;19.20;99.90;;;;;;5080462;28;20445;-85
2021/06/22 03:05:47;;;;;;;13.10;11.67;;;19.20;99.90;;;;;;5080329;28;20433;-86
2021/06/22 03:08:23;;;;;;;12.10;10.17;;;19.20;99.90;;;;;;5080640;28;20515;-85
2021/06/22 03:10:53;;;;;;;11.83;10.23;;;19.20;99.90;;;;;;5080617;28;20419;-85
2021/06/22 03:13:21;;;;;;;15.60;12.00;;;19.20;99.90;;;;;;5080444;28;20417;-85
2021/06/22 03:15:51;;;;;;;13.17;11.67;;;19.20;99.90;;;;;;5080347;28;20457;-85
2021/06/22 03:18:24;;;;;;;13.53;12.13;;;19.30;99.90;;;;;;5091577;28;20417;-84
2021/06/22 03:20:54;;;;;;;19.33;10.60;;;19.30;99.90;;;;;;5062187;28;20943;-84
2021/06/22 03:23:25;;;;;;;13.50;11.37;;;19.30;99.90;;;;;;5064155;28;20463;-84
2021/06/22 03:25:57;;;;;;;14.60;12.07;;;19.40;99.90;;;;;;5083337;28;20460;-85
2021/06/22 03:28:27;;;;;;;13.40;12.00;;;19.30;99.90;;;;;;5069132;28;20409;-85
2021/06/22 03:30:58;;;;;;;15.30;12.30;;;19.30;99.90;;;;;;5088686;28;20488;-84
2021/06/22 03:33:26;;;;;;;14.80;12.53;;;19.30;99.90;;;;;;5072973;28;20440;-84
2021/06/22 03:35:54;;;;;;;19.43;12.93;;;19.20;99.90;;;;;;5089750;28;20535;-83
2021/06/22 03:38:23;;;;;;;13.70;12.20;;;19.20;99.90;;;;;;5082363;28;20400;-83
2021/06/22 03:40:52;;;;;;;13.57;12.17;;;19.20;99.90;;;;;;5060248;28;20420;-84
2021/06/22 03:43:22;;;;;;;13.43;11.47;;;19.20;99.90;;;;;;5060331;28;20420;-84
2021/06/22 03:45:54;;;;;;;15.57;12.10;;;19.30;99.90;;;;;;5075051;28;20440;-83
2021/06/22 03:48:25;;;;;;;17.63;13.37;;;19.20;99.90;;;;;;5096797;28;20449;-84
2021/06/22 03:50:54;;;;;;;14.10;12.13;;;19.20;99.90;;;;;;5068485;28;20427;-85
2021/06/22 03:53:23;;;;;;;14.17;12.77;;;19.10;99.90;;;;;;5065107;28;20430;-85
2021/06/22 03:55:52;;;;;;;21.80;11.43;;;19.00;99.90;;;;;;5064433;28;20547;-85
2021/06/22 03:58:43;;;;;;;13.53;11.30;;;18.90;99.90;;;;;;5083074;28;20968;-84
2021/06/22 04:01:12;;;;;;;13.73;11.47;;;19.10;99.90;;;;;;5084017;28;20397;-86
2021/06/22 04:03:43;;;;;;;12.87;11.57;;;19.00;99.90;;;;;;5079791;28;20467;-84
2021/06/22 04:06:15;;;;;;;14.47;12.40;;;19.00;99.90;;;;;;5084033;28;20942;-85
2021/06/22 04:08:44;;;;;;;14.23;12.50;;;19.00;99.90;;;;;;5060124;28;20412;-83
2021/06/22 04:11:18;;;;;;;15.43;13.47;;;19.00;99.90;;;;;;5078666;28;20505;-83
2021/06/22 04:13:47;;;;;;;21.00;13.97;;;19.00;99.90;;;;;;5077480;28;20448;-85
2021/06/22 04:16:17;;;;;;;16.77;12.97;;;19.00;99.90;;;;;;5059079;28;20463;-85
2021/06/22 04:18:47;;;;;;;15.17;11.93;;;19.00;99.90;;;;;;5075911;28;20712;-85
2021/06/22 04:21:19;;;;;;;16.50;14.50;;;19.10;99.90;;;;;;5058632;28;20451;-83
2021/06/22 04:23:49;;;;;;;17.33;13.70;;;19.10;99.90;;;;;;5060234;28;20431;-83
2021/06/22 04:26:18;;;;;;;24.23;13.30;;;19.00;99.90;;;;;;5076716;28;21044;-85
2021/06/22 04:28:48;;;;;;;26.43;13.63;;;19.00;99.90;;;;;;5077757;28;20432;-84
2021/06/22 04:31:17;;;;;;;21.47;14.63;;;19.00;99.90;;;;;;5062146;28;20416;-84
2021/06/22 04:33:46;;;;;;;22.30;17.03;;;19.10;99.90;;;;;;5079349;28;20397;-85
2021/06/22 04:36:14;;;;;;;20.53;16.57;;;19.10;99.90;;;;;;5061271;28;20458;-84
2021/06/22 04:38:42;;;;;;;22.07;14.87;;;19.00;99.90;;;;;;5063137;28;20427;-84
2021/06/22 04:41:11;;;;;;;24.60;17.40;;;19.00;99.90;;;;;;5062082;28;20423;-85
2021/06/22 04:43:39;;;;;;;21.70;15.57;;;19.10;99.90;;;;;;5080934;28;20415;-85
2021/06/22 04:46:09;;;;;;;22.23;16.13;;;19.00;99.90;;;;;;5063878;28;20984;-84
2021/06/22 04:48:39;;;;;;;26.27;17.73;;;18.90;99.90;;;;;;5062078;28;20498;-85
2021/06/22 04:51:07;;;;;;;25.53;17.63;;;18.90;99.90;;;;;;5062144;28;20924;-85
2021/06/22 04:53:35;;;;;;;27.87;16.50;;;18.90;99.90;;;;;;5062515;28;20423;-85
2021/06/22 04:56:04;;;;;;;35.43;17.13;;;19.00;99.90;;;;;;5062363;28;20448;-85
2021/06/22 04:58:33;;;;;;;23.97;16.13;;;19.10;99.90;;;;;;5061564;28;20449;-85
2021/06/22 05:01:03;;;;;;;29.87;18.43;;;19.10;99.90;;;;;;5060735;28;20450;-84
2021/06/22 05:03:35;;;;;;;22.13;17.33;;;18.90;99.90;;;;;;5080737;28;20895;-85
2021/06/22 05:06:03;;;;;;;22.90;14.57;;;18.90;99.90;;;;;;5071868;28;20443;-85
2021/06/22 05:08:32;;;;;;;24.60;15.63;;;19.00;99.90;;;;;;5076277;28;20466;-85
2021/06/22 05:11:00;;;;;;;26.67;16.07;;;19.00;99.90;;;;;;5093583;28;20373;-85
2021/06/22 05:13:28;;;;;;;20.10;14.90;;;18.90;99.90;;;;;;5071339;28;20734;-85
2021/06/22 05:15:56;;;;;;;24.97;17.77;;;18.90;99.90;;;;;;5088584;28;20401;-82
2021/06/22 05:18:24;;;;;;;22.93;16.40;;;18.80;99.90;;;;;;5081964;28;20472;-84
2021/06/22 05:20:54;;;;;;;32.30;18.67;;;18.40;99.90;;;;;;5082221;28;20501;-83
2021/06/22 05:23:22;;;;;;;35.13;17.37;;;18.30;99.90;;;;;;5082300;28;20426;-83
2021/06/22 05:25:51;;;;;;;28.27;15.87;;;18.30;99.90;;;;;;5082139;28;20454;-83
2021/06/22 05:28:19;;;;;;;20.77;15.63;;;18.30;99.90;;;;;;5082400;28;20483;-83
2021/06/22 05:30:47;;;;;;;22.40;14.43;;;18.10;99.90;;;;;;5098661;28;20397;-83
2021/06/22 05:33:15;;;;;;;23.07;13.97;;;18.00;99.90;;;;;;5098914;28;20405;-84
2021/06/22 05:35:43;;;;;;;17.87;14.40;;;17.80;99.90;;;;;;5099529;28;20695;-84
2021/06/22 05:38:13;;;;;;;13.93;11.63;;;17.80;99.90;;;;;;5081524;28;20441;-83
2021/06/22 05:40:41;;;;;;;15.10;11.07;;;17.70;99.90;;;;;;5081118;28;20423;-82
2021/06/22 05:43:09;;;;;;;18.47;11.80;;;17.70;99.90;;;;;;5096857;28;20421;-83
2021/06/22 05:45:37;;;;;;;16.60;11.43;;;17.60;99.90;;;;;;5092831;28;20429;-83
2021/06/22 05:48:06;;;;;;;16.63;11.47;;;17.70;99.90;;;;;;5074842;28;20560;-83
2021/06/22 05:50:34;;;;;;;13.20;10.63;;;17.80;99.90;;;;;;5086166;28;20405;-85
2021/06/22 05:53:03;;;;;;;17.90;9.83;;;17.90;99.90;;;;;;5066685;28;20867;-84
2021/06/22 05:55:33;;;;;;;10.73;8.30;;;17.80;99.90;;;;;;5084117;28;21004;-85
2021/06/22 05:58:01;;;;;;;12.27;8.97;;;18.00;99.90;;;;;;5067621;28;20417;-85
2021/06/22 06:00:32;;;;;;;11.23;9.17;;;18.30;99.90;;;;;;5083066;28;20416;-84
2021/06/22 06:03:00;;;;;;;9.97;8.60;;;18.40;99.90;;;;;;5066049;28;20423;-84
2021/06/22 06:05:28;;;;;;;10.37;8.93;;;18.30;99.90;;;;;;5070613;28;20539;-84
2021/06/22 06:07:57;;;;;;;10.73;9.07;;;18.10;99.90;;;;;;5082537;28;20512;-84
2021/06/22 06:10:25;;;;;;;10.57;6.63;;;17.80;99.90;;;;;;5082541;28;20430;-85
2021/06/22 06:12:55;;;;;;;9.80;7.80;;;17.60;99.90;;;;;;5063913;28;20470;-84
2021/06/22 06:15:26;;;;;;;9.53;7.27;;;17.60;99.90;;;;;;5063961;28;20482;-84
2021/06/22 06:17:55;;;;;;;11.67;7.63;;;17.60;99.90;;;;;;5064167;28;20512;-83
2021/06/22 06:20:25;;;;;;;8.90;8.00;;;17.60;99.90;;;;;;5063869;28;20421;-84
2021/06/22 06:22:53;;;;;;;11.73;8.00;;;17.60;99.90;;;;;;5063855;28;20421;-84
2021/06/22 06:25:21;;;;;;;8.40;7.43;;;17.70;99.90;;;;;;5064494;28;20824;-84
2021/06/22 06:27:55;;;;;;;13.00;7.80;;;17.80;99.90;;;;;;5063844;28;20437;-82
2021/06/22 06:30:28;;;;;;;6.80;6.20;;;17.80;99.90;;;;;;5063247;28;20452;-85
2021/06/22 06:32:57;;;;;;;8.60;5.50;;;18.00;99.90;;;;;;5081834;28;20929;-83
2021/06/22 06:35:26;;;;;;;5.53;4.97;;;18.10;99.90;;;;;;5062752;28;20437;-84
2021/06/22 06:37:55;;;;;;;8.30;4.50;;;18.10;99.90;;;;;;5072556;28;20424;-84
2021/06/22 06:40:24;;;;;;;4.90;4.40;;;18.00;99.90;;;;;;5080065;28;20406;-84
2021/06/22 06:42:52;;;;;;;6.10;4.47;;;18.20;99.90;;;;;;5092223;28;20441;-85
2021/06/22 06:45:20;;;;;;;5.20;4.17;;;18.30;99.90;;;;;;5060919;28;20463;-86
2021/06/22 06:47:51;;;;;;;5.37;4.87;;;18.40;99.90;;;;;;5078916;28;20847;-84
2021/06/22 06:50:19;;;;;;;6.20;4.60;;;18.40;99.90;;;;;;5060970;28;20434;-85
2021/06/22 06:52:48;;;;;;;3.87;3.47;;;18.30;99.90;;;;;;5063241;28;20442;-84
2021/06/22 06:55:26;;;;;;;6.47;3.67;;;18.30;99.90;;;;;;5082800;28;20438;-84
2021/06/22 06:57:58;;;;;;;6.33;4.27;;;18.20;99.90;;;;;;5080533;28;20442;-83
2021/06/22 07:00:27;;;;;;;4.37;3.90;;;18.20;99.90;;;;;;5080670;28;20441;-83
2021/06/22 07:02:57;;;;;;;7.27;4.70;;;18.00;99.90;;;;;;5098036;28;20379;-82
2021/06/22 07:05:25;;;;;;;8.27;4.80;;;18.00;99.90;;;;;;5082463;28;20405;-84
2021/06/22 07:07:55;;;;;;;4.83;4.07;;;18.10;99.90;;;;;;5080494;28;20502;-83
2021/06/22 07:10:23;;;;;;;5.27;4.20;;;18.30;99.90;;;;;;5081245;28;20417;-85
2021/06/22 07:12:53;;;;;;;3.60;3.30;;;18.50;99.90;;;;;;5080743;28;20393;-86
2021/06/22 07:15:22;;;;;;;4.20;3.90;;;18.50;99.90;;;;;;5065804;28;20470;-85
2021/06/22 07:17:51;;;;;;;3.60;3.30;;;18.60;99.90;;;;;;5066714;28;20465;-86
2021/06/22 07:20:21;;;;;;;4.40;4.00;;;18.70;99.90;;;;;;5089970;28;20409;-85
2021/06/22 07:22:49;;;;;;;5.67;3.47;;;18.70;99.90;;;;;;5074764;28;20447;-84
2021/06/22 07:25:19;;;;;;;3.63;3.33;;;18.90;99.90;;;;;;5074657;28;20466;-85
2021/06/22 07:27:48;;;;;;;3.50;3.03;;;19.10;99.90;;;;;;5087940;28;20458;-85
2021/06/22 07:30:18;;;;;;;3.27;2.83;;;19.30;99.90;;;;;;5069556;28;20453;-85
2021/06/22 07:32:46;;;;;;;3.77;3.37;;;19.40;99.90;;;;;;5067539;28;20405;-86
2021/06/22 07:35:14;;;;;;;7.03;5.10;;;19.10;99.90;;;;;;5085319;28;20446;-85
2021/06/22 07:37:44;;;;;;;6.03;4.30;;;18.70;99.90;;;;;;5067555;28;20496;-85
2021/06/22 07:40:13;;;;;;;4.40;3.80;;;18.70;99.90;;;;;;5066310;28;20464;-84
2021/06/22 07:42:42;;;;;;;4.30;3.90;;;19.00;99.90;;;;;;5083382;28;20397;-85
2021/06/22 07:45:12;;;;;;;5.50;4.47;;;19.20;99.90;;;;;;5083254;28;20438;-84
2021/06/22 07:47:40;;;;;;;6.50;4.47;;;19.10;99.90;;;;;;5064530;28;20401;-83
2021/06/22 07:50:10;;;;;;;5.90;5.37;;;19.00;99.90;;;;;;5065075;28;20465;-84
2021/06/22 07:52:38;;;;;;;5.17;4.67;;;18.80;99.90;;;;;;5074593;28;20446;-84
2021/06/22 07:55:13;;;;;;;8.30;4.77;;;19.00;99.90;;;;;;5072918;28;20446;-83
2021/06/22 07:57:43;;;;;;;5.03;3.30;;;18.90;99.90;;;;;;5064755;28;20443;-84
2021/06/22 08:00:34;;;;;;;4.70;3.77;;;18.70;99.90;;;;;;5082316;28;20427;-85
2021/06/22 08:03:02;;;;;;;3.90;3.40;;;18.70;99.90;;;;;;5066514;28;20775;-85
2021/06/22 08:05:31;;;;;;;4.60;4.20;;;18.50;99.90;;;;;;5068406;28;20433;-86
2021/06/22 08:07:59;;;;;;;4.93;4.43;;;18.20;99.90;;;;;;5088150;28;20463;-85
2021/06/22 08:10:29;;;;;;;5.10;4.57;;;18.20;99.90;;;;;;5087946;28;20424;-85
2021/06/22 08:12:58;;;;;;;5.40;4.63;;;18.10;99.90;;;;;;5072311;28;20425;-83
2021/06/22 08:15:26;;;;;;;5.10;4.07;;;17.90;99.90;;;;;;5099200;28;20405;-85
2021/06/22 08:17:56;;;;;;;8.00;5.70;;;17.80;99.90;;;;;;5080865;28;20419;-85
2021/06/22 08:20:24;;;;;;;5.90;5.40;;;17.80;99.90;;;;;;5073311;28;20576;-85
2021/06/22 08:22:53;;;;;;;8.33;4.70;;;17.90;99.90;;;;;;5068160;28;20780;-85
2021/06/22 08:25:22;;;;;;;5.50;4.90;;;17.80;99.90;;;;;;5064920;28;20447;-79
2021/06/22 08:27:53;;;;;;;6.30;4.90;;;17.70;99.90;;;;;;5081735;28;20393;-79
2021/06/22 08:30:23;;;;;;;6.23;5.63;;;17.60;99.90;;;;;;5062778;28;20872;-79
2021/06/22 08:32:52;;;;;;;5.30;4.80;;;17.70;99.90;;;;;;5085652;28;20429;-78
2021/06/22 08:35:20;;;;;;;6.30;5.50;;;17.60;99.90;;;;;;5088635;28;20405;-78
2021/06/22 08:37:49;;;;;;;5.23;4.73;;;17.50;99.90;;;;;;5087379;28;20422;-78
2021/06/22 08:40:17;;;;;;;6.13;4.90;;;17.40;99.90;;;;;;5085676;28;20385;-79
2021/06/22 08:42:46;;;;;;;6.27;4.30;;;17.30;99.90;;;;;;5080777;28;20782;-80
2021/06/22 08:45:18;;;;;;;9.60;5.00;;;17.10;99.90;;;;;;5080906;28;20446;-81
2021/06/22 08:47:47;;;;;;;7.30;5.23;;;17.10;99.90;;;;;;5083439;28;20423;-81
2021/06/22 08:50:17;;;;;;;5.47;5.03;;;17.10;99.90;;;;;;5066891;28;20445;-80
2021/06/22 08:52:46;;;;;;;6.23;5.63;;;17.10;99.90;;;;;;5066458;28;20415;-80
2021/06/22 08:55:30;;;;;;;5.80;5.17;;;17.20;99.90;;;;;;5065417;28;21016;-78
2021/06/22 08:58:01;;;;;;;4.77;4.27;;;17.40;99.90;;;;;;5067963;28;20403;-79
2021/06/22 09:00:35;;;;;;;4.80;4.40;;;17.30;99.90;;;;;;5087539;28;20385;-78
2021/06/22 09:03:07;;;;;;;4.47;4.03;;;17.20;99.90;;;;;;5090389;28;20450;-80
2021/06/22 09:05:36;;;;;;;4.83;4.37;;;17.40;99.90;;;;;;5090466;28;20432;-79
2021/06/22 09:08:05;;;;;;;13.33;4.23;;;17.30;99.90;;;;;;5073082;28;20441;-79
2021/06/22 09:10:35;;;;;;;5.90;4.20;;;17.40;99.90;;;;;;5095308;28;20461;-78
2021/06/22 09:13:13;;;;;;;9.10;5.40;;;17.50;99.90;;;;;;5073917;28;20420;-80
2021/06/22 09:15:46;;;;;;;3.90;3.50;;;17.60;99.90;;;;;;5073071;28;20470;-79
2021/06/22 09:18:25;;;;;;;4.00;3.60;;;17.60;99.90;;;;;;5089230;28;20420;-79
2021/06/22 09:20:55;;;;;;;5.10;4.17;;;17.60;99.90;;;;;;5072702;28;20428;-79
2021/06/22 09:23:25;;;;;;;5.00;3.70;;;17.50;99.90;;;;;;5088855;28;20464;-77
2021/06/22 09:25:55;;;;;;;4.77;3.33;;;17.60;99.90;;;;;;5089264;22;20923;-71
2021/06/22 09:28:26;;;;;;;7.60;4.60;;;17.60;99.90;;;;;;5073061;28;20429;-72
2021/06/22 09:30:59;;;;;;;4.07;3.73;;;17.70;99.90;;;;;;5073097;28;20539;-70
2021/06/22 09:33:36;;;;;;;6.93;4.10;;;17.70;99.90;;;;;;5073036;28;20446;-71
2021/06/22 09:36:12;;;;;;;5.20;4.10;;;17.70;99.90;;;;;;5073390;28;20446;-71
2021/06/22 09:38:43;;;;;;;7.47;4.40;;;17.60;99.90;;;;;;5073026;28;20454;-72
2021/06/22 09:41:15;;;;;;;4.70;4.30;;;17.50;99.90;;;;;;5073008;28;20417;-71
2021/06/22 09:43:46;;;;;;;3.87;2.90;;;17.60;99.90;;;;;;5073015;28;20397;-72
2021/06/22 09:46:18;;;;;;;4.93;3.10;;;17.70;99.90;;;;;;5054999;28;20439;-72
2021/06/22 09:48:54;;;;;;;7.43;3.60;;;17.80;99.90;;;;;;5073214;28;20420;-72
2021/06/22 09:51:29;;;;;;;4.23;3.23;;;18.00;99.90;;;;;;5054612;28;20868;-71
2021/06/22 09:54:09;;;;;;;5.27;3.97;;;18.10;99.90;;;;;;5072582;28;20421;-71
2021/06/22 09:56:37;;;;;;;4.47;3.70;;;18.20;99.90;;;;;;5072936;28;20401;-72
2021/06/22 09:59:09;;;;;;;5.33;3.50;;;18.00;99.90;;;;;;5072773;28;21015;-71
2021/06/22 10:01:38;;;;;;;4.57;3.40;;;17.90;99.90;;;;;;5073323;28;20442;-73
2021/06/22 10:04:18;;;;;;;3.57;3.27;;;18.00;99.90;;;;;;5072508;28;20403;-71
2021/06/22 10:06:55;;;;;;;4.17;3.73;;;18.00;99.90;;;;;;5072563;28;20885;-71
2021/06/22 10:09:26;;;;;;;3.93;3.30;;;18.10;99.90;;;;;;5073319;28;20418;-72
2021/06/22 10:12:07;;;;;;;3.63;3.30;;;18.10;99.90;;;;;;5072967;28;20738;-71
2021/06/22 10:14:38;;;;;;;4.30;3.80;;;18.30;99.90;;;;;;5072135;28;20414;-71
2021/06/22 10:17:09;;;;;;;4.50;3.47;;;18.20;99.90;;;;;;5072915;28;20802;-72
2021/06/22 10:19:41;;;;;;;5.07;4.10;;;18.40;99.90;;;;;;5072766;28;20476;-71
2021/06/22 10:22:09;;;;;;;4.77;3.57;;;18.50;99.90;;;;;;5072127;28;20504;-72
2021/06/22 10:24:43;;;;;;;8.30;4.30;;;18.60;99.90;;;;;;5071556;28;20430;-71
2021/06/22 10:27:11;;;;;;;6.40;3.90;;;18.40;99.90;;;;;;5072111;28;20499;-72
2021/06/22 10:29:40;;;;;;;6.13;4.90;;;18.30;99.90;;;;;;5072094;28;20397;-73
2021/06/22 10:32:11;;;;;;;8.20;4.87;;;18.30;99.90;;;;;;5071688;28;20949;-70
2021/06/22 10:34:44;;;;;;;4.43;3.93;;;18.40;99.90;;;;;;5071961;28;20742;-70
2021/06/22 10:37:15;;;;;;;4.40;4.00;;;18.40;99.90;;;;;;5072151;28;20397;-70
2021/06/22 10:39:50;;;;;;;4.40;4.00;;;18.30;99.90;;;;;;5071816;28;20403;-72
2021/06/22 10:42:19;;;;;;;5.33;4.80;;;18.50;99.90;;;;;;5071631;28;20385;-70
2021/06/22 10:44:49;;;;;;;10.57;5.53;;;18.60;99.90;;;;;;5071743;28;20394;-70
2021/06/22 10:47:34;;;;;;;3.83;3.43;;;18.80;99.90;;;;;;5071619;28;20389;-72
2021/06/22 10:50:13;;;;;;;6.50;3.90;;;19.00;99.90;;;;;;5069697;28;20817;-71
2021/06/22 10:53:07;;;;;;;4.33;3.93;;;19.20;99.90;;;;;;5071238;28;20389;-72
2021/06/22 10:56:16;;;;;;;4.63;3.70;;;19.40;99.90;;;;;;5071193;28;20833;-72
2021/06/22 10:59:19;;;;;;;4.07;3.77;;;19.10;99.90;;;;;;5071173;28;20395;-71
2021/06/22 11:02:01;;;;;;;5.33;3.70;;;18.90;99.90;;;;;;5071631;28;20466;-71
2021/06/22 11:04:31;;;;;;;3.53;3.23;;;18.80;99.90;;;;;;5071857;28;20397;-71
2021/06/22 11:07:24;;;;;;;3.40;3.03;;;18.90;99.90;;;;;;5072142;28;20426;-71
2021/06/22 11:10:13;;;;;;;5.10;4.40;;;18.90;99.90;;;;;;5053543;28;20434;-72
2021/06/22 11:12:51;;;;;;;7.20;4.37;;;18.80;99.90;;;;;;5071689;28;20415;-72
2021/06/22 11:15:20;;;;;;;8.90;5.07;;;18.70;99.90;;;;;;5072551;28;20767;-72
2021/06/22 11:17:57;;;;;;;3.93;3.40;;;18.70;99.90;;;;;;5072199;28;20953;-72
2021/06/22 11:20:30;;;;;;;5.83;4.27;;;18.70;99.90;;;;;;5071523;28;20405;-73
2021/06/22 11:23:21;;;;;;;5.57;3.87;;;18.60;99.90;;;;;;5071733;28;20393;-72
2021/06/22 11:26:08;;;;;;;3.60;3.30;;;18.40;99.90;;;;;;5053718;28;20409;-72
2021/06/22 11:28:54;;;;;;;4.53;4.20;;;18.40;99.90;;;;;;5058867;28;20416;-72
2021/06/22 11:31:41;;;;;;;4.97;4.47;;;18.40;99.90;;;;;;5071467;28;20498;-70
2021/06/22 11:34:12;;;;;;;5.87;3.90;;;18.50;99.90;;;;;;5072061;28;20423;-71
2021/06/22 11:36:43;;;;;;;4.47;4.10;;;18.50;99.90;;;;;;5071213;28;20397;-72
2021/06/22 11:39:21;;;;;;;6.90;4.17;;;18.50;99.90;;;;;;5071623;28;20419;-71
2021/06/22 11:42:18;;;;;;;4.47;4.07;;;18.60;99.90;;;;;;5053174;28;20432;-72
2021/06/22 11:44:49;;;;;;;4.27;3.70;;;18.90;99.90;;;;;;5072031;28;20412;-72
2021/06/22 11:47:52;;;;;;;4.70;4.20;;;19.10;99.90;;;;;;5071942;28;20889;-70
2021/06/22 11:50:24;;;;;;;4.90;3.50;;;19.40;99.90;;;;;;5071231;28;20413;-72
2021/06/22 11:53:01;;;;;;;5.97;4.30;;;19.40;99.90;;;;;;5072263;28;20465;-72
2021/06/22 11:55:31;;;;;;;9.60;4.30;;;19.50;99.90;;;;;;5054097;28;20525;-70
2021/06/22 11:58:00;;;;;;;10.33;4.80;;;20.10;99.90;;;;;;5072712;28;20939;-73
2021/06/22 12:00:32;;;;;;;7.83;3.80;;;20.20;99.90;;;;;;5072488;28;20447;-73
2021/06/22 12:03:02;;;;;;;4.40;4.00;;;20.00;99.90;;;;;;5053828;28;20496;-72
2021/06/22 12:05:32;;;;;;;5.33;4.17;;;19.90;99.90;;;;;;5070904;28;20408;-71
2021/06/22 12:08:03;;;;;;;3.87;3.57;;;19.70;99.90;;;;;;5053627;28;20409;-70
2021/06/22 12:10:44;;;;;;;6.33;4.47;;;19.70;99.90;;;;;;5071210;28;20801;-72
2021/06/22 12:13:13;;;;;;;4.50;3.77;;;20.00;99.90;;;;;;5071113;28;20472;-71
2021/06/22 12:15:44;;;;;;;4.50;4.10;;;20.10;99.90;;;;;;5071758;28;20397;-71
2021/06/22 12:18:13;;;;;;;3.67;3.27;;;20.60;99.90;;;;;;5071802;28;20418;-71
2021/06/22 12:20:43;;;;;;;3.60;3.30;;;21.10;99.90;;;;;;5071354;28;20792;-71
2021/06/22 12:23:15;;;;;;;7.80;4.30;;;21.30;99.90;;;;;;5071306;28;20397;-72
2021/06/22 12:25:46;;;;;;;4.10;3.60;;;21.00;99.90;;;;;;5070115;28;20906;-70
2021/06/22 12:28:15;;;;;;;6.83;3.63;;;20.90;99.90;;;;;;5070759;28;20456;-69
2021/06/22 12:30:47;;;;;;;3.50;3.20;;;21.00;99.90;;;;;;5067335;28;20486;-71
2021/06/22 12:33:17;;;;;;;3.50;3.20;;;20.80;99.90;;;;;;5070210;28;20397;-71
2021/06/22 12:35:48;;;;;;;5.10;3.77;;;20.50;99.90;;;;;;5052130;28;20442;-71
2021/06/22 12:38:19;;;;;;;6.63;3.53;;;20.40;99.90;;;;;;5071654;28;20393;-70
2021/06/22 12:40:49;;;;;;;4.40;3.80;;;20.60;99.90;;;;;;5069858;28;20443;-73
2021/06/22 12:43:19;;;;;;;4.00;3.60;;;20.80;99.90;;;;;;5069606;28;20423;-71
2021/06/22 12:46:01;;;;;;;5.03;3.10;;;20.70;99.90;;;;;;5059958;28;20443;-71
2021/06/22 12:48:29;;;;;;;4.57;4.17;;;20.70;99.90;;;;;;5034486;28;20424;-73
2021/06/22 12:50:58;;;;;;;5.93;4.03;;;20.70;99.90;;;;;;5080763;28;20481;-72
2021/06/22 12:53:28;;;;;;;3.50;3.20;;;21.00;99.90;;;;;;5072747;28;20966;-72
2021/06/22 12:56:08;;;;;;;3.87;3.50;;;21.50;99.90;;;;;;5072488;28;20399;-73
2021/06/22 12:58:46;;;;;;;3.63;3.33;;;22.00;99.90;;;;;;5072835;28;20425;-72
2021/06/22 13:01:36;;;;;;;3.67;3.27;;;22.20;99.90;;;;;;5073267;28;20594;-72
2021/06/22 13:04:07;;;;;;;4.07;3.67;;;22.50;99.90;;;;;;5072654;28;20433;-71